Time;durP1;ratioP1;P1;durP2;ratioP2;P2;SDS_P1;SDS_P2;PMS_P1;PMS_P2;Temp;Humidity;BMP_temperature;BMP_pressure;BME280_temperature;BME280_humidity;BME280_pressure;Samples;Min_cycle;Max_cycle;Signal;HPM_P1;HPM_P2
2024/04/02 00:01:07;;;;;;;;;4.00;3.00;;;;;18.73;100.00;96913.63;6012286;28;96421;-63
2024/04/02 00:04:12;;;;;;;;;2.00;2.00;;;;;18.78;100.00;96932.56;6041406;28;96313;-64
2024/04/02 00:07:14;;;;;;;;;2.00;2.00;;;;;18.81;100.00;96952.97;6029549;28;96397;-64
2024/04/02 00:10:17;;;;;;;;;2.80;2.80;;;;;18.63;100.00;96965.81;6025300;28;96620;-65
2024/04/02 00:13:19;;;;;;;;;2.00;2.00;;;;;18.53;100.00;96966.91;6020066;28;98292;-64
2024/04/02 00:16:20;;;;;;;;;2.00;2.00;;;;;18.40;100.00;96951.47;6041942;28;96487;-65
2024/04/02 00:19:22;;;;;;;;;3.00;2.50;;;;;18.36;100.00;96963.34;6012462;28;96382;-65
2024/04/02 00:22:24;;;;;;;;;2.00;2.00;;;;;18.24;100.00;96961.22;6024806;28;97324;-59
2024/04/02 00:25:28;;;;;;;;;2.00;2.00;;;;;18.35;100.00;96961.72;6024272;28;96592;-59
2024/04/02 00:28:30;;;;;;;;;2.20;2.00;;;;;18.42;100.00;96962.06;6021307;28;96966;-60
2024/04/02 00:31:32;;;;;;;;;3.00;2.00;;;;;18.17;100.00;96966.34;6028733;28;97945;-58
2024/04/02 00:34:33;;;;;;;;;2.00;2.00;;;;;18.28;100.00;96967.63;6000218;29;96731;-59
2024/04/02 00:37:36;;;;;;;;;3.25;2.00;;;;;18.30;100.00;96965.41;6011908;28;96309;-59
2024/04/02 00:40:40;;;;;;;;;2.00;2.00;;;;;18.25;100.00;96962.84;6062039;28;97582;-59
2024/04/02 00:43:42;;;;;;;;;3.40;3.00;;;;;18.10;100.00;96947.72;6031240;28;97192;-59
2024/04/02 00:46:43;;;;;;;;;2.00;2.00;;;;;18.02;100.00;96953.97;5997435;29;98743;-59
2024/04/02 00:49:46;;;;;;;;;2.80;2.00;;;;;18.08;100.00;96962.81;6005748;28;96910;-58
2024/04/02 00:52:48;;;;;;;;;3.00;2.00;;;;;18.01;100.00;96965.19;6016575;28;96816;-59
2024/04/02 00:55:52;;;;;;;;;3.00;2.60;;;;;18.00;100.00;96952.66;6020271;28;96389;-59
2024/04/02 00:58:54;;;;;;;;;3.00;3.00;;;;;18.00;100.00;96952.66;6012127;28;97808;-60
2024/04/02 01:01:56;;;;;;;;;2.00;2.00;;;;;18.02;100.00;96945.78;6029227;23;96526;-60
2024/04/02 01:05:00;;;;;;;;;2.75;2.75;;;;;17.96;100.00;96957.13;6053527;28;96602;-59
2024/04/02 01:08:02;;;;;;;;;2.00;2.00;;;;;17.83;100.00;96947.16;6037541;28;98601;-59
2024/04/02 01:11:05;;;;;;;;;3.00;3.00;;;;;17.77;100.00;96941.03;6052496;28;96323;-58
2024/04/02 01:14:08;;;;;;;;;3.00;3.00;;;;;17.72;100.00;96935.72;6062805;28;96339;-59
2024/04/02 01:17:12;;;;;;;;;3.40;3.40;;;;;17.69;100.00;96937.16;6074727;28;96743;-59
2024/04/02 01:20:14;;;;;;;;;5.00;4.20;;;;;17.65;100.00;96933.44;6065057;28;96471;-59
2024/04/02 01:23:16;;;;;;;;;5.00;5.00;;;;;17.65;100.00;96951.72;6052664;28;96372;-59
2024/04/02 01:26:18;;;;;;;;;4.00;4.00;;;;;17.61;100.00;96954.28;6053358;28;96544;-60
2024/04/02 01:29:21;;;;;;;;;3.00;3.00;;;;;17.58;100.00;96954.06;6053657;28;96363;-59
2024/04/02 01:32:22;;;;;;;;;3.50;3.00;;;;;17.69;100.00;96960.91;6055579;28;98878;-65
2024/04/02 01:35:24;;;;;;;;;2.60;2.60;;;;;17.62;100.00;96944.19;6101691;28;96340;-64
2024/04/02 01:38:27;;;;;;;;;3.60;3.60;;;;;17.64;100.00;96955.59;6052083;28;96998;-64
2024/04/02 01:41:29;;;;;;;;;4.00;4.00;;;;;17.45;100.00;96954.94;6049471;28;98514;-64
2024/04/02 01:44:31;;;;;;;;;3.40;3.00;;;;;17.44;100.00;96956.91;6069377;28;96842;-65
2024/04/02 01:47:32;;;;;;;;;3.00;3.00;;;;;17.45;100.00;96963.13;6088033;28;96797;-65
2024/04/02 01:50:35;;;;;;;;;4.00;3.00;;;;;17.41;100.00;96965.69;6059846;28;96344;-64
2024/04/02 01:53:36;;;;;;;;;4.00;4.00;;;;;17.40;100.00;96961.34;6067017;28;96685;-65
2024/04/02 01:56:40;;;;;;;;;4.00;3.00;;;;;17.46;100.00;96975.63;6071460;28;96712;-64
2024/04/02 01:59:41;;;;;;;;;3.00;3.00;;;;;17.52;100.00;96988.00;6069516;28;96689;-64
2024/04/02 02:02:43;;;;;;;;;3.00;3.00;;;;;17.38;100.00;96992.75;6086014;28;96843;-64
2024/04/02 02:05:46;;;;;;;;;2.00;2.00;;;;;17.20;100.00;97002.72;6066859;28;97638;-64
2024/04/02 02:08:49;;;;;;;;;3.00;3.00;;;;;16.98;100.00;97006.22;6044953;28;98940;-63
2024/04/02 02:11:51;;;;;;;;;2.40;1.00;;;;;16.95;100.00;97009.59;6067655;28;96360;-64
2024/04/02 02:14:54;;;;;;;;;3.00;2.00;;;;;16.79;100.00;97009.13;6070026;28;98466;-63
2024/04/02 02:17:55;;;;;;;;;3.00;3.00;;;;;16.53;100.00;96999.06;6103743;28;98377;-64
2024/04/02 02:20:57;;;;;;;;;3.00;3.00;;;;;16.64;100.00;97022.25;6087787;28;96405;-64
2024/04/02 02:23:59;;;;;;;;;4.00;4.00;;;;;16.53;100.00;97015.41;6083318;28;96294;-63
2024/04/02 02:27:02;;;;;;;;;2.60;2.60;;;;;16.34;100.00;97019.06;6086623;28;96385;-63
2024/04/02 02:30:06;;;;;;;;;2.50;2.50;;;;;16.10;100.00;97031.25;6055372;28;98504;-64
2024/04/02 02:33:08;;;;;;;;;3.00;3.00;;;;;16.09;100.00;97025.00;6064390;28;96439;-63
2024/04/02 02:36:09;;;;;;;;;3.00;3.00;;;;;15.93;100.00;97037.31;6066259;28;96820;-61
2024/04/02 02:39:12;;;;;;;;;3.00;3.00;;;;;15.88;100.00;97048.25;6004563;28;98872;-65
2024/04/02 02:42:14;;;;;;;;;4.00;3.40;;;;;15.60;100.00;97056.34;6040289;28;96356;-62
2024/04/02 02:45:17;;;;;;;;;4.00;4.00;;;;;15.57;100.00;97062.38;6082560;28;96378;-62
2024/04/02 02:48:18;;;;;;;;;3.00;3.00;;;;;15.52;100.00;97061.66;6063838;28;96618;-62
2024/04/02 02:51:20;;;;;;;;;4.00;4.00;;;;;15.42;100.00;97057.19;6077038;28;96459;-62
2024/04/02 02:54:23;;;;;;;;;3.00;3.00;;;;;15.36;100.00;97043.97;6042872;28;96683;-62
2024/04/02 02:57:27;;;;;;;;;2.00;2.00;;;;;15.34;100.00;97022.56;6060908;28;96584;-62
2024/04/02 03:00:28;;;;;;;;;2.00;2.00;;;;;15.21;100.00;97015.16;6071439;28;96945;-62
2024/04/02 03:03:31;;;;;;;;;2.00;2.00;;;;;15.16;100.00;96999.78;6063331;28;96279;-62
2024/04/02 03:06:32;;;;;;;;;2.00;2.00;;;;;15.29;100.00;97000.13;6061926;28;97018;-62
2024/04/02 03:09:36;;;;;;;;;2.00;2.00;;;;;15.29;100.00;96984.66;6031124;28;98951;-62
2024/04/02 03:12:39;;;;;;;;;2.00;2.00;;;;;15.33;100.00;96988.38;6065650;28;96438;-61
2024/04/02 03:15:41;;;;;;;;;1.40;1.40;;;;;15.32;100.00;96975.91;6063599;28;96375;-61
2024/04/02 03:18:42;;;;;;;;;1.00;1.00;;;;;15.16;100.00;96988.09;6059980;28;98481;-61
2024/04/02 03:21:44;;;;;;;;;2.00;2.00;;;;;15.18;100.00;96991.34;6064661;28;96640;-61
2024/04/02 03:24:45;;;;;;;;;2.00;2.00;;;;;15.12;100.00;96987.91;6082314;28;97415;-61
2024/04/02 03:27:49;;;;;;;;;1.00;1.00;;;;;15.13;100.00;96996.84;6065925;28;96366;-61
2024/04/02 03:30:50;;;;;;;;;1.00;1.00;;;;;15.05;100.00;96992.13;6061525;28;96958;-61
2024/04/02 03:33:52;;;;;;;;;1.00;1.00;;;;;15.05;100.00;96992.13;6059919;28;96394;-61
2024/04/02 03:36:53;;;;;;;;;1.00;1.00;;;;;15.09;100.00;97001.28;6049523;28;98451;-60
2024/04/02 03:39:55;;;;;;;;;2.00;2.00;;;;;15.06;100.00;97016.22;6045506;28;96245;-61
2024/04/02 03:42:59;;;;;;;;;2.00;2.00;;;;;14.98;100.00;97005.25;6045853;28;96658;-61
2024/04/02 03:46:03;;;;;;;;;2.40;2.40;;;;;15.05;100.00;97009.19;6079286;28;96666;-62
2024/04/02 03:49:04;;;;;;;;;3.00;2.00;;;;;15.07;100.00;97017.84;6054427;28;98914;-61
2024/04/02 03:52:07;;;;;;;;;4.00;4.00;;;;;15.08;100.00;97016.75;6055284;28;96430;-57
2024/04/02 03:55:08;;;;;;;;;2.00;2.00;;;;;15.00;100.00;97006.53;6049425;28;97323;-57
2024/04/02 03:58:11;;;;;;;;;1.40;1.40;;;;;14.84;100.00;97012.50;6019375;28;99058;-57
2024/04/02 04:01:13;;;;;;;;;4.00;4.00;;;;;14.97;100.00;97017.19;6055909;28;96726;-58
2024/04/02 04:04:15;;;;;;;;;3.00;3.00;;;;;14.91;100.00;97021.06;6050685;28;96717;-58
2024/04/02 04:07:18;;;;;;;;;3.00;3.00;;;;;14.89;100.00;97018.66;6053610;28;97065;-58
2024/04/02 04:10:21;;;;;;;;;3.00;3.00;;;;;14.94;100.00;97024.03;6068520;28;96638;-59
2024/04/02 04:13:25;;;;;;;;;2.40;2.40;;;;;14.98;100.00;97025.03;6045008;28;96650;-59
2024/04/02 04:16:27;;;;;;;;;2.00;2.00;;;;;15.01;100.00;97034.47;6039581;28;96690;-58
2024/04/02 04:19:29;;;;;;;;;3.00;3.00;;;;;15.03;100.00;97032.28;6039030;28;96805;-59
2024/04/02 04:22:31;;;;;;;;;3.00;3.00;;;;;14.94;100.00;97037.59;6053963;28;97316;-57
2024/04/02 04:25:33;;;;;;;;;4.00;4.00;;;;;14.76;100.00;97021.31;6047663;28;96720;-58
2024/04/02 04:28:36;;;;;;;;;3.00;3.00;;;;;14.79;100.00;97031.56;6023383;28;97703;-57
2024/04/02 04:31:44;;;;;;;;;3.00;3.00;;;;;14.80;100.00;97041.34;6048120;28;96871;-58
2024/04/02 04:34:46;;;;;;;;;4.00;3.75;;;;;14.85;100.00;97052.91;6026269;28;98535;-57
2024/04/02 04:37:48;;;;;;;;;3.00;3.00;;;;;14.88;100.00;97051.50;6053779;28;96606;-57
2024/04/02 04:40:51;;;;;;;;;3.00;3.00;;;;;14.69;100.00;97044.19;6052857;28;96341;-57
2024/04/02 04:43:53;;;;;;;;;2.60;2.60;;;;;14.70;100.00;97058.56;6049765;28;97393;-58
2024/04/02 04:46:56;;;;;;;;;3.00;3.00;;;;;14.62;100.00;97054.56;6049707;28;96395;-57
2024/04/02 04:49:57;;;;;;;;;3.00;3.00;;;;;14.66;100.00;97063.75;6038886;28;99209;-57
2024/04/02 04:52:59;;;;;;;;;3.00;3.00;;;;;14.67;100.00;97075.41;6065728;28;96472;-58
2024/04/02 04:56:01;;;;;;;;;2.00;2.00;;;;;14.65;100.00;97069.47;6085892;28;96422;-57
2024/04/02 04:59:05;;;;;;;;;3.00;1.50;;;;;14.43;100.00;97072.72;6051308;28;96393;-56
2024/04/02 05:02:07;;;;;;;;;2.00;2.00;;;;;14.45;100.00;97080.59;6055406;28;96438;-57
2024/04/02 05:05:09;;;;;;;;;1.00;1.00;;;;;14.41;100.00;97083.06;6038439;28;96876;-59
2024/04/02 05:08:25;;;;;;;;;2.00;2.00;;;;;14.36;100.00;97082.28;6040153;28;99129;-58
2024/04/02 05:11:28;;;;;;;;;2.00;2.00;;;;;14.28;100.00;97089.94;6040147;28;96437;-57
2024/04/02 05:14:30;;;;;;;;;1.00;1.00;;;;;14.25;100.00;97095.16;6034524;28;98762;-57
2024/04/02 05:17:32;;;;;;;;;2.00;2.00;;;;;14.20;100.00;97098.72;6034499;28;99135;-58
2024/04/02 05:20:34;;;;;;;;;3.00;2.60;;;;;14.22;100.00;97091.09;6035840;28;96362;-57
2024/04/02 05:23:36;;;;;;;;;2.00;2.00;;;;;14.18;100.00;97090.06;6036260;28;98660;-57
2024/04/02 05:26:38;;;;;;;;;3.00;2.20;;;;;14.22;100.00;97088.38;6051822;28;96373;-58
2024/04/02 05:29:41;;;;;;;;;2.00;2.00;;;;;14.28;100.00;97091.84;6050194;28;96530;-57
2024/04/02 05:32:43;;;;;;;;;2.00;2.00;;;;;14.10;100.00;97081.78;6033768;28;96857;-58
2024/04/02 05:35:46;;;;;;;;;2.00;2.00;;;;;14.21;100.00;97078.66;6018998;28;99090;-58
2024/04/02 05:38:47;;;;;;;;;2.00;2.00;;;;;14.27;100.00;97082.91;6049966;28;98234;-58
2024/04/02 05:41:49;;;;;;;;;2.00;2.00;;;;;14.28;100.00;97089.13;6017349;28;98560;-59
2024/04/02 05:44:52;;;;;;;;;1.00;1.00;;;;;14.29;100.00;97093.47;6045121;28;98964;-58
2024/04/02 05:47:54;;;;;;;;;3.00;3.00;;;;;14.25;100.00;97101.38;6053339;28;96392;-59
2024/04/02 05:50:56;;;;;;;;;2.40;2.00;;;;;14.25;100.00;97106.81;6053103;28;96310;-58
2024/04/02 05:53:59;;;;;;;;;2.00;2.00;;;;;14.18;100.00;97097.38;6052887;28;96362;-58
2024/04/02 05:57:00;;;;;;;;;3.00;2.00;;;;;14.25;100.00;97111.41;6014242;28;98394;-57
2024/04/02 06:00:05;;;;;;;;;3.00;3.00;;;;;14.31;100.00;97119.22;6051849;28;96566;-58
2024/04/02 06:03:13;;;;;;;;;2.00;2.00;;;;;14.34;100.00;97123.22;6053798;28;96316;-57
2024/04/02 06:06:15;;;;;;;;;2.00;2.00;;;;;14.31;100.00;97127.34;6033882;28;98576;-57
2024/04/02 06:09:18;;;;;;;;;1.60;1.00;;;;;14.13;100.00;97121.81;6037034;28;96723;-57
2024/04/02 06:12:21;;;;;;;;;2.00;2.00;;;;;14.28;100.00;97144.16;6041785;28;98375;-63
2024/04/02 06:15:24;;;;;;;;;4.00;3.00;;;;;14.18;100.00;97146.97;6045884;28;98557;-62
2024/04/02 06:18:26;;;;;;;;;3.60;3.60;;;;;14.15;100.00;97154.88;6045182;28;96478;-63
2024/04/02 06:21:28;;;;;;;;;5.00;4.00;;;;;14.08;100.00;97157.91;6061119;28;96350;-63
2024/04/02 06:24:30;;;;;;;;;4.00;4.00;;;;;14.10;100.00;97160.34;6028706;28;98385;-63
2024/04/02 06:27:32;;;;;;;;;3.00;3.00;;;;;14.02;100.00;97167.22;6044101;28;98734;-63
2024/04/02 06:30:35;;;;;;;;;2.00;2.00;;;;;13.93;100.00;97178.94;6047623;28;97739;-63
2024/04/02 06:33:37;;;;;;;;;2.40;2.40;;;;;14.00;100.00;97176.69;6048675;28;97126;-62
2024/04/02 06:36:38;;;;;;;;;4.00;3.25;;;;;13.87;100.00;97170.88;6049593;28;96475;-63
2024/04/02 06:39:41;;;;;;;;;2.00;2.00;;;;;13.81;100.00;97177.41;6066371;28;96408;-64
2024/04/02 06:42:42;;;;;;;;;3.00;3.00;;;;;13.79;100.00;97184.19;6064488;28;96461;-64
2024/04/02 06:45:54;;;;;;;;;2.00;2.00;;;;;13.81;100.00;97190.13;6067772;28;96815;-62
2024/04/02 06:48:57;;;;;;;;;2.00;2.00;;;;;13.88;100.00;97191.41;6043950;28;96930;-62
2024/04/02 06:51:59;;;;;;;;;3.00;3.00;;;;;13.74;100.00;97162.56;6065714;28;96487;-63
2024/04/02 06:55:01;;;;;;;;;3.00;3.00;;;;;13.86;100.00;97185.50;6070040;28;96802;-63
2024/04/02 06:58:04;;;;;;;;;2.00;2.00;;;;;13.87;100.00;97179.00;6074262;28;98579;-63
2024/04/02 07:01:07;;;;;;;;;1.80;1.80;;;;;13.75;100.00;97177.72;6066588;28;96343;-63
2024/04/02 07:04:08;;;;;;;;;3.00;3.00;;;;;13.64;100.00;97189.72;6065756;28;96507;-64
2024/04/02 07:07:10;;;;;;;;;3.00;3.00;;;;;13.62;100.00;97179.19;6051112;28;98431;-64
2024/04/02 07:10:12;;;;;;;;;3.00;2.00;;;;;13.74;100.00;97186.94;6051265;28;96427;-63
2024/04/02 07:13:14;;;;;;;;;3.00;3.00;;;;;13.73;100.00;97196.94;6067802;28;96376;-63
2024/04/02 07:16:17;;;;;;;;;4.60;3.60;;;;;13.86;100.00;97207.16;6054281;28;98631;-63
2024/04/02 07:19:19;;;;;;;;;4.00;4.00;;;;;13.72;100.00;97213.50;6066425;28;96412;-63
2024/04/02 07:22:21;;;;;;;;;4.00;4.00;;;;;13.78;100.00;97224.00;6055894;28;96372;-60
2024/04/02 07:25:23;;;;;;;;;2.00;2.00;;;;;13.67;100.00;97221.66;6050998;28;96988;-62
2024/04/02 07:28:26;;;;;;;;;5.50;5.00;;;;;13.72;100.00;97232.47;6035557;28;98410;-60
2024/04/02 07:31:29;;;;;;;;;5.40;5.00;;;;;13.66;100.00;97239.00;6051887;28;96434;-62
2024/04/02 07:34:31;;;;;;;;;5.80;5.00;;;;;13.70;100.00;97245.47;6050177;28;96540;-62
2024/04/02 07:37:33;;;;;;;;;3.80;3.80;;;;;13.71;100.00;97252.50;6051639;28;96530;-60
2024/04/02 07:40:35;;;;;;;;;3.00;3.00;;;;;13.64;100.00;97257.41;6050854;28;96494;-60
2024/04/02 07:43:38;;;;;;;;;5.00;5.00;;;;;13.62;100.00;97268.53;6043999;28;96318;-60
2024/04/02 07:46:41;;;;;;;;;3.40;3.40;;;;;13.65;100.00;97270.69;6028602;28;96373;-60
2024/04/02 07:49:43;;;;;;;;;4.00;3.00;;;;;13.69;100.00;97273.63;6046990;28;96430;-60
2024/04/02 07:52:44;;;;;;;;;3.40;3.40;;;;;13.66;100.00;97285.03;6048609;28;96375;-60
2024/04/02 07:55:46;;;;;;;;;4.00;4.00;;;;;13.70;100.00;97295.03;6048197;28;96563;-60
2024/04/02 07:58:48;;;;;;;;;4.00;3.00;;;;;13.66;100.00;97296.66;6032885;28;96637;-60
2024/04/02 08:01:52;;;;;;;;;3.25;3.00;;;;;13.60;100.00;97295.06;6048263;28;96811;-60
2024/04/02 08:04:53;;;;;;;;;4.00;4.00;;;;;13.54;100.00;97314.31;6050812;28;96511;-60
2024/04/02 08:07:55;;;;;;;;;4.25;4.00;;;;;13.56;100.00;97326.50;6051503;28;96790;-60
2024/04/02 08:10:56;;;;;;;;;3.00;3.00;;;;;13.45;100.00;97335.75;6051226;28;96537;-60
2024/04/02 08:13:58;;;;;;;;;5.00;5.00;;;;;13.37;100.00;97337.16;6051696;28;97445;-62
2024/04/02 08:17:02;;;;;;;;;4.00;4.00;;;;;13.27;100.00;97364.25;6052115;28;96453;-62
2024/04/02 08:20:05;;;;;;;;;4.00;3.60;;;;;13.18;100.00;97360.50;6051723;28;96536;-62
2024/04/02 08:23:08;;;;;;;;;4.00;3.50;;;;;13.27;100.00;97364.25;6051612;28;96579;-62
2024/04/02 08:26:11;;;;;;;;;5.00;5.00;;;;;13.22;100.00;97363.47;6051791;28;96437;-62
2024/04/02 08:29:12;;;;;;;;;4.00;4.00;;;;;13.38;100.00;97373.97;6067081;28;96566;-62
2024/04/02 08:32:16;;;;;;;;;4.00;4.00;;;;;13.20;100.00;97379.97;6070029;28;96252;-56
2024/04/02 08:35:19;;;;;;;;;4.60;4.60;;;;;13.20;100.00;97392.69;6039596;28;96736;-58
2024/04/02 08:38:20;;;;;;;;;3.00;3.00;;;;;13.11;100.00;97391.59;6039203;28;96294;-57
2024/04/02 08:41:26;;;;;;;;;3.00;3.00;;;;;13.13;100.00;97393.00;6054601;28;96264;-57
2024/04/02 08:44:31;;;;;;;;;2.20;2.20;;;;;13.22;100.00;97388.63;6053749;28;96398;-57
2024/04/02 08:47:37;;;;;;;;;7.00;6.00;;;;;13.28;100.00;97389.44;6039456;28;97425;-58
2024/04/02 08:50:38;;;;;;;;;2.00;2.00;;;;;13.37;100.00;97382.34;6052876;28;96383;-59
2024/04/02 08:53:40;;;;;;;;;2.00;2.00;;;;;13.27;100.00;97393.22;6059619;28;96348;-58
2024/04/02 08:56:42;;;;;;;;;4.00;4.00;;;;;13.13;100.00;97398.41;6024064;28;98951;-57
2024/04/02 08:59:46;;;;;;;;;4.00;4.00;;;;;13.23;100.00;97397.56;6053489;28;98476;-58
2024/04/02 09:02:52;;;;;;;;;5.00;5.00;;;;;13.10;100.00;97393.47;6053072;28;97598;-57
2024/04/02 09:05:54;;;;;;;;;5.00;5.00;;;;;13.05;100.00;97390.78;6053600;28;96482;-59
2024/04/02 09:08:56;;;;;;;;;5.80;4.20;;;;;13.10;100.00;97406.19;6054183;28;96395;-57
2024/04/02 09:11:58;;;;;;;;;6.00;5.00;;;;;13.20;100.00;97406.22;6053301;28;96317;-57
2024/04/02 09:14:59;;;;;;;;;5.00;5.00;;;;;13.18;100.00;97416.50;6037088;28;96420;-57
2024/04/02 09:18:03;;;;;;;;;4.00;4.00;;;;;13.24;100.00;97431.66;6054467;28;96272;-57
2024/04/02 09:21:06;;;;;;;;;5.00;5.00;;;;;13.23;100.00;97427.34;6049134;28;96649;-59
2024/04/02 09:24:08;;;;;;;;;4.00;4.00;;;;;13.20;100.00;97420.56;6045172;28;98937;-58
2024/04/02 09:27:11;;;;;;;;;5.00;5.00;;;;;13.28;100.00;97444.38;6038487;28;96806;-57
2024/04/02 09:30:14;;;;;;;;;4.20;4.20;;;;;13.33;100.00;97457.09;6038718;28;96703;-57
2024/04/02 09:33:18;;;;;;;;;5.20;5.20;;;;;13.43;100.00;97449.75;6030362;28;98608;-57
2024/04/02 09:36:41;;;;;;;;;4.60;4.60;;;;;13.58;100.00;97461.63;6041145;28;96517;-56
2024/04/02 09:39:45;;;;;;;;;4.60;4.60;;;;;13.54;100.00;97457.81;6054090;28;96374;-59
2024/04/02 09:42:50;;;;;;;;;5.00;4.00;;;;;13.60;100.00;97456.72;6037882;28;98435;-61
2024/04/02 09:45:52;;;;;;;;;4.00;3.80;;;;;13.63;100.00;97459.72;6053566;28;96975;-61
2024/04/02 09:48:57;;;;;;;;;5.25;5.00;;;;;13.65;100.00;97465.66;6020105;28;98758;-62
2024/04/02 09:52:01;;;;;;;;;4.25;4.00;;;;;13.77;100.00;97470.75;6053169;28;96156;-61
2024/04/02 09:55:04;;;;;;;;;4.00;4.00;;;;;13.72;100.00;97485.13;6037582;28;96317;-61
2024/04/02 09:58:09;;;;;;;;;5.00;5.00;;;;;13.77;100.00;97476.19;6052896;28;96522;-63
2024/04/02 10:01:11;;;;;;;;;5.60;5.00;;;;;13.84;100.00;97482.09;6035814;28;97006;-61
2024/04/02 10:04:15;;;;;;;;;6.00;6.00;;;;;13.81;100.00;97469.13;6020590;28;99384;-61
2024/04/02 10:07:22;;;;;;;;;4.40;4.00;;;;;13.74;100.00;97487.53;6039543;28;96687;-62
2024/04/02 10:10:28;;;;;;;;;5.00;4.60;;;;;13.68;100.00;97499.50;6056406;28;96596;-61
2024/04/02 10:13:34;;;;;;;;;5.80;5.80;;;;;13.65;100.00;97502.75;6058355;28;96467;-62
2024/04/02 10:16:41;;;;;;;;;5.00;5.00;;;;;13.72;100.00;97501.38;6056774;28;96271;-61
2024/04/02 10:19:46;;;;;;;;;7.00;5.67;;;;;13.66;100.00;97507.09;6058637;28;96468;-61
2024/04/02 10:22:49;;;;;;;;;6.40;6.40;;;;;13.65;100.00;97502.75;6051527;28;96363;-62
2024/04/02 10:25:53;;;;;;;;;8.00;7.00;;;;;13.72;100.00;97506.00;6047096;28;96404;-62
2024/04/02 10:28:55;;;;;;;;;7.00;6.40;;;;;13.78;100.00;97508.38;6055570;28;97374;-61
2024/04/02 10:31:58;;;;;;;;;6.00;6.00;;;;;13.85;100.00;97513.53;6055877;28;96312;-62
2024/04/02 10:35:01;;;;;;;;;7.50;6.00;;;;;14.02;100.00;97515.91;6039689;28;96927;-62
2024/04/02 10:38:05;;;;;;;;;7.00;6.00;;;;;14.04;100.00;97517.25;6039565;28;97200;-62
2024/04/02 10:41:07;;;;;;;;;6.00;5.50;;;;;14.15;100.00;97515.31;6053199;28;96857;-61
2024/04/02 10:44:09;;;;;;;;;7.25;7.00;;;;;14.20;100.00;97516.09;6039882;28;96714;-62
2024/04/02 10:47:16;;;;;;;;;6.20;6.20;;;;;14.11;100.00;97512.34;6067965;28;96911;-62
2024/04/02 10:50:21;;;;;;;;;7.00;6.50;;;;;14.09;100.00;97519.13;6053389;28;96437;-62
2024/04/02 10:53:22;;;;;;;;;6.60;6.60;;;;;14.04;100.00;97521.84;6035448;28;97670;-64
2024/04/02 10:56:24;;;;;;;;;6.00;6.00;;;;;14.01;100.00;97509.69;6054494;28;98710;-62
2024/04/02 10:59:26;;;;;;;;;7.00;7.00;;;;;13.93;100.00;97528.41;6069497;28;96241;-62
2024/04/02 11:02:28;;;;;;;;;8.60;7.60;;;;;14.00;100.00;97528.91;6068919;28;96340;-63
2024/04/02 11:05:31;;;;;;;;;6.00;6.00;;;;;13.92;100.00;97532.19;6068456;28;96419;-63
2024/04/02 11:08:36;;;;;;;;;6.00;6.00;;;;;13.96;100.00;97535.97;6051446;28;96438;-63
2024/04/02 11:11:39;;;;;;;;;6.00;6.00;;;;;14.17;100.00;97546.44;6066477;28;98574;-63
2024/04/02 11:14:40;;;;;;;;;6.00;5.00;;;;;13.96;100.00;97542.22;6051850;28;96710;-63
2024/04/02 11:17:43;;;;;;;;;4.60;4.00;;;;;14.07;100.00;97546.53;6066788;28;96480;-64
2024/04/02 11:20:45;;;;;;;;;5.00;5.00;;;;;13.89;100.00;97545.19;6050299;28;97076;-64
2024/04/02 11:27:06;;;;;;;;;4.50;3.50;;;;;14.02;100.00;97548.44;6041287;28;98546;-64
2024/04/02 11:30:10;;;;;;;;;5.00;5.00;;;;;14.03;100.00;97534.59;6049361;28;97776;-63
2024/04/02 11:33:11;;;;;;;;;5.00;4.40;;;;;14.01;100.00;97541.38;6065951;28;96305;-61
2024/04/02 11:36:15;;;;;;;;;5.00;5.00;;;;;13.78;100.00;97551.72;6064071;28;96831;-62
2024/04/02 11:39:18;;;;;;;;;6.00;6.00;;;;;13.68;100.00;97532.78;6063052;28;96496;-61
2024/04/02 11:42:20;;;;;;;;;8.75;8.75;;;;;13.56;100.00;97545.00;6049242;28;96790;-63
2024/04/02 11:45:23;;;;;;;;;9.00;8.00;;;;;13.42;100.00;97558.28;6049502;28;96912;-63
2024/04/02 11:48:25;;;;;;;;;9.60;8.00;;;;;13.59;100.00;97550.69;6046979;28;98621;-63
2024/04/02 11:51:28;;;;;;;;;7.50;7.50;;;;;13.66;100.00;97550.41;6062396;28;96670;-61
2024/04/02 11:54:30;;;;;;;;;6.60;6.60;;;;;13.60;100.00;97567.75;6062769;28;96410;-61
2024/04/02 12:00:52;;;;;;;;;8.00;8.00;;;;;13.72;100.00;97558.25;6060351;28;96419;-62
2024/04/02 12:03:54;;;;;;;;;7.20;7.00;;;;;13.88;100.00;97559.00;6050183;28;97500;-60
2024/04/02 12:06:58;;;;;;;;;8.00;7.00;;;;;13.71;100.00;97555.81;6051675;28;96275;-61
2024/04/02 12:10:02;;;;;;;;;7.00;7.00;;;;;13.94;100.00;97574.19;6049827;28;96298;-61
2024/04/02 12:13:05;;;;;;;;;8.00;7.00;;;;;13.81;100.00;97572.88;6064745;28;96497;-61
2024/04/02 12:16:08;;;;;;;;;7.00;7.00;;;;;13.87;100.00;97573.66;6033797;28;98561;-62
2024/04/02 12:19:09;;;;;;;;;7.00;6.60;;;;;14.05;100.00;97581.19;6049960;28;96451;-60
2024/04/02 12:22:13;;;;;;;;;7.00;6.00;;;;;13.87;100.00;97585.31;6034213;28;96364;-60
2024/04/02 12:25:14;;;;;;;;;6.60;6.60;;;;;14.08;100.00;97585.25;6050420;28;96838;-61
2024/04/02 12:28:16;;;;;;;;;6.00;6.00;;;;;14.12;100.00;97589.84;6049560;28;96608;-61
2024/04/02 12:31:18;;;;;;;;;6.00;6.00;;;;;14.18;100.00;97596.06;6019182;28;96533;-61
2024/04/02 12:34:22;;;;;;;;;7.00;6.20;;;;;14.52;100.00;97601.66;6047751;28;96837;-60
2024/04/02 12:37:26;;;;;;;;;7.80;7.00;;;;;14.66;100.00;97600.75;6033071;28;96694;-61
2024/04/02 12:40:29;;;;;;;;;6.00;6.00;;;;;14.92;100.00;97606.88;6062650;28;97482;-60
2024/04/02 12:43:30;;;;;;;;;7.00;7.00;;;;;15.18;100.00;97604.81;6050006;28;96908;-61
2024/04/02 12:46:33;;;;;;;;;7.20;7.00;;;;;15.42;100.00;97615.75;6049488;28;96355;-61
2024/04/02 12:49:35;;;;;;;;;7.00;7.00;;;;;15.49;100.00;97606.19;6048322;28;96778;-62
2024/04/02 12:52:38;;;;;;;;;8.00;7.00;;;;;15.69;100.00;97604.41;6051101;28;96297;-62
2024/04/02 12:55:40;;;;;;;;;7.00;7.00;;;;;15.85;100.00;97619.50;6049058;28;97223;-62
2024/04/02 12:58:42;;;;;;;;;6.40;6.40;;;;;16.05;100.00;97616.56;6049043;28;96374;-62
2024/04/02 13:01:44;;;;;;;;;7.00;7.00;;;;;16.37;100.00;97613.25;6047603;28;96569;-61
2024/04/02 13:04:46;;;;;;;;;7.00;7.00;;;;;16.66;100.00;97622.19;6048414;28;96682;-61
2024/04/02 13:07:49;;;;;;;;;7.00;7.00;;;;;16.63;100.00;97613.75;6048787;28;96380;-61
2024/04/02 13:10:52;;;;;;;;;7.60;7.00;;;;;16.65;100.00;97615.09;6047640;28;96455;-60
2024/04/02 13:13:54;;;;;;;;;6.00;6.00;;;;;16.75;100.00;97611.44;6052114;28;96384;-58
2024/04/02 13:16:56;;;;;;;;;7.00;6.20;;;;;16.92;100.00;97611.75;6051260;28;96457;-58
2024/04/02 13:19:58;;;;;;;;;7.00;7.00;;;;;17.13;100.00;97604.09;6051697;28;96540;-58
2024/04/02 13:23:01;;;;;;;;;7.00;7.00;;;;;17.09;100.00;97603.88;6034347;28;96973;-58
2024/04/02 13:26:09;;;;;;;;;7.00;6.60;;;;;17.15;100.00;97597.25;6051686;28;97232;-57
2024/04/02 13:29:13;;;;;;;;;8.00;6.20;;;;;17.28;100.00;97599.25;6035829;28;98803;-59
2024/04/02 13:32:14;;;;;;;;;7.00;7.00;;;;;17.21;100.00;97609.69;6034705;28;98576;-56
2024/04/02 13:35:18;;;;;;;;;6.00;6.00;;;;;17.19;100.00;97609.19;6051015;28;96290;-59
2024/04/02 13:38:20;;;;;;;;;5.40;5.00;;;;;17.20;100.00;97613.50;6034901;28;99187;-58
2024/04/02 13:41:25;;;;;;;;;5.50;5.50;;;;;17.17;100.00;97610.56;6034512;28;96792;-59
2024/04/02 13:44:26;;;;;;;;;6.75;6.00;;;;;17.27;100.00;97613.97;6051510;28;98677;-58
2024/04/02 13:47:28;;;;;;;;;6.00;6.00;;;;;17.53;100.00;97619.81;6051050;28;96280;-59
2024/04/02 13:50:29;;;;;;;;;5.00;5.00;;;;;17.84;100.00;97625.59;6035055;28;98500;-57
2024/04/02 13:53:34;;;;;;;;;5.00;4.60;;;;;17.90;100.00;97616.22;6050417;28;96623;-58
2024/04/02 13:56:36;;;;;;;;;4.00;4.00;;;;;17.72;100.00;97604.28;6047524;28;98382;-57
2024/04/02 13:59:37;;;;;;;;;7.00;6.00;;;;;17.90;100.00;97602.59;6051366;28;96281;-57
2024/04/02 14:02:39;;;;;;;;;5.00;5.00;;;;;17.88;100.00;97596.63;6034474;28;96383;-57
2024/04/02 14:05:40;;;;;;;;;6.00;6.00;;;;;17.82;100.00;97595.09;6050233;28;96889;-57
2024/04/02 14:08:44;;;;;;;;;6.00;6.00;;;;;17.60;100.00;97576.66;6034656;28;98557;-58
2024/04/02 14:11:46;;;;;;;;;6.40;6.00;;;;;17.22;100.00;97581.34;6047856;28;98872;-58
2024/04/02 14:14:48;;;;;;;;;6.00;6.00;;;;;17.09;100.00;97593.00;6049344;28;96757;-58